createdAt,value
2023-05-05T00:00:14.816Z,5225.00
2023-05-05T00:01:14.755Z,5223.00
2023-05-05T00:02:14.788Z,5206.00
2023-05-05T00:03:14.905Z,5213.00
2023-05-05T00:04:14.978Z,5197.00
2023-05-05T00:05:14.848Z,5196.00
2023-05-05T00:06:14.842Z,5195.00
2023-05-05T00:07:14.860Z,5211.00
2023-05-05T00:08:14.867Z,5217.00
2023-05-05T00:09:14.846Z,5203.00
2023-05-05T00:10:14.876Z,5186.00
2023-05-05T00:11:14.883Z,5187.00
2023-05-05T00:12:14.900Z,5172.00
2023-05-05T00:13:14.902Z,5171.00
2023-05-05T00:14:14.901Z,5174.00
2023-05-05T00:15:14.924Z,5179.00
2023-05-05T00:16:15.015Z,5179.00
2023-05-05T00:17:14.912Z,5159.00
2023-05-05T00:18:14.944Z,5168.00
2023-05-05T00:19:14.939Z,5152.00
2023-05-05T00:20:14.896Z,5143.00
2023-05-05T00:21:14.885Z,5122.00
2023-05-05T00:22:14.889Z,5147.00
2023-05-05T00:23:14.897Z,5144.00
2023-05-05T00:24:14.894Z,5132.00
2023-05-05T00:25:14.910Z,5122.00
2023-05-05T00:26:14.925Z,5121.00
2023-05-05T00:27:14.894Z,5130.00
2023-05-05T00:28:14.899Z,5125.00
2023-05-05T00:29:14.954Z,5111.00
2023-05-05T00:30:14.901Z,5125.00
2023-05-05T00:31:14.947Z,5118.00
2023-05-05T00:32:14.938Z,5118.00
2023-05-05T00:33:14.914Z,5112.00
2023-05-05T00:34:14.935Z,5107.00
2023-05-05T00:35:14.957Z,5113.00
2023-05-05T00:36:14.884Z,5109.00
2023-05-05T00:37:14.978Z,5093.00
2023-05-05T00:38:14.889Z,5106.00
2023-05-05T00:39:14.982Z,5110.00
2023-05-05T00:40:14.920Z,5102.00
2023-05-05T00:41:14.907Z,5081.00
2023-05-05T00:42:14.948Z,5088.00
2023-05-05T00:43:14.935Z,5084.00
2023-05-05T00:44:14.947Z,5079.00
2023-05-05T00:45:14.949Z,5073.00
2023-05-05T00:46:14.992Z,5071.00
2023-05-05T00:47:14.965Z,5064.00
2023-05-05T00:48:14.935Z,5062.00
2023-05-05T00:49:14.984Z,5067.00
2023-05-05T00:50:14.985Z,5047.00
2023-05-05T00:51:14.955Z,5065.00
2023-05-05T00:52:14.973Z,5053.00
2023-05-05T00:53:15.037Z,5035.00
2023-05-05T00:54:14.977Z,5049.00
2023-05-05T00:55:14.985Z,5046.00
2023-05-05T00:56:14.991Z,5042.00
2023-05-05T00:57:15.029Z,5029.00
2023-05-05T00:58:15.222Z,5038.00
2023-05-05T00:59:15.056Z,5024.00
2023-05-05T01:00:15.058Z,5030.00
2023-05-05T01:01:15.082Z,5025.00
2023-05-05T01:02:15.131Z,5012.00
2023-05-05T01:03:15.241Z,5011.00
2023-05-05T01:04:15.062Z,5029.00
2023-05-05T01:05:15.104Z,5009.00
2023-05-05T01:06:15.082Z,5010.00
2023-05-05T01:07:15.231Z,5004.00
2023-05-05T01:08:15.205Z,5015.00
2023-05-05T01:09:15.120Z,5010.00
2023-05-05T01:10:20.372Z,5006.00
2023-05-05T01:11:16.125Z,5007.00
2023-05-05T01:12:15.091Z,5007.00
2023-05-05T01:13:15.202Z,5010.00
2023-05-05T01:14:15.089Z,5004.00
2023-05-05T01:15:15.045Z,5009.00
2023-05-05T01:16:15.173Z,5005.00
2023-05-05T01:17:15.065Z,4985.00
2023-05-05T01:18:15.145Z,4985.00
2023-05-05T01:19:15.088Z,4986.00
2023-05-05T01:20:15.066Z,4990.00
2023-05-05T01:21:15.058Z,4981.00
2023-05-05T01:22:15.065Z,4983.00
2023-05-05T01:23:15.020Z,4964.00
2023-05-05T01:24:15.019Z,4967.00
2023-05-05T01:25:15.036Z,4974.00
2023-05-05T01:26:15.097Z,4966.00
2023-05-05T01:27:14.976Z,4952.00
2023-05-05T01:28:14.974Z,4960.00
2023-05-05T01:29:15.045Z,4954.00
2023-05-05T01:30:14.986Z,4957.00
2023-05-05T01:31:15.038Z,4963.00
2023-05-05T01:32:14.987Z,4959.00
2023-05-05T01:33:14.980Z,4953.00
2023-05-05T01:34:14.988Z,4947.00
2023-05-05T01:35:14.961Z,4934.00
2023-05-05T01:36:14.912Z,4925.00
2023-05-05T01:37:14.902Z,4916.00
2023-05-05T01:38:14.941Z,4916.00
2023-05-05T01:39:14.894Z,4913.00
2023-05-05T01:40:14.919Z,4918.00
2023-05-05T01:41:15.005Z,4918.00
2023-05-05T01:42:14.871Z,4904.00
2023-05-05T01:43:14.912Z,4898.00
2023-05-05T01:44:14.893Z,4895.00
2023-05-05T01:45:14.908Z,4890.00
2023-05-05T01:46:15.056Z,4885.00
2023-05-05T01:47:14.930Z,4897.00
2023-05-05T01:48:14.981Z,4888.00
2023-05-05T01:49:14.951Z,4882.00
2023-05-05T01:50:14.975Z,4876.00
2023-05-05T01:51:14.991Z,4875.00
2023-05-05T01:52:14.991Z,4883.00
2023-05-05T01:53:14.998Z,4873.00
2023-05-05T01:54:15.026Z,4867.00
2023-05-05T01:55:15.086Z,4881.00
2023-05-05T01:56:15.107Z,4881.00
2023-05-05T01:57:15.049Z,4870.00
2023-05-05T01:58:15.089Z,4871.00
2023-05-05T01:59:15.074Z,4865.00
2023-05-05T02:00:15.132Z,4856.00
2023-05-05T02:01:15.150Z,4867.00
2023-05-05T02:02:15.215Z,4851.00
2023-05-05T02:03:15.186Z,4849.00
2023-05-05T02:04:15.144Z,4851.00
2023-05-05T02:05:15.157Z,4837.00
2023-05-05T02:06:15.164Z,4837.00
2023-05-05T02:07:15.164Z,4828.00
2023-05-05T02:08:15.191Z,4827.00
2023-05-05T02:09:15.147Z,4816.00
2023-05-05T02:10:15.213Z,4794.00
2023-05-05T02:11:15.188Z,4815.00
2023-05-05T02:12:15.187Z,4802.00
2023-05-05T02:13:15.355Z,4797.00
2023-05-05T02:14:15.247Z,4803.00
2023-05-05T02:15:15.262Z,4790.00
2023-05-05T02:16:15.408Z,4800.00
2023-05-05T02:17:15.312Z,4787.00
2023-05-05T02:18:15.332Z,4782.00
2023-05-05T02:19:15.311Z,4772.00
2023-05-05T02:20:15.357Z,4791.00
2023-05-05T02:21:15.344Z,4778.00
2023-05-05T02:22:15.365Z,4777.00
2023-05-05T02:23:15.373Z,4780.00
2023-05-05T02:24:15.385Z,4768.00
2023-05-05T02:25:15.389Z,4778.00
2023-05-05T02:26:15.397Z,4784.00
2023-05-05T02:27:15.405Z,4765.00
2023-05-05T02:28:15.459Z,4776.00
2023-05-05T02:29:15.462Z,4776.00
2023-05-05T02:30:15.470Z,4769.00
2023-05-05T02:31:15.494Z,4765.00
2023-05-05T02:32:15.440Z,4767.00
2023-05-05T02:33:15.472Z,4769.00
2023-05-05T02:34:15.577Z,4759.00
2023-05-05T02:35:15.564Z,4748.00
2023-05-05T02:36:15.548Z,4740.00
2023-05-05T02:37:15.526Z,4747.00
2023-05-05T02:38:15.579Z,4729.00
2023-05-05T02:39:15.565Z,4746.00
2023-05-05T02:40:15.645Z,4725.00
2023-05-05T02:41:15.628Z,4732.00
2023-05-05T02:42:15.694Z,4723.00
2023-05-05T02:43:15.700Z,4715.00
2023-05-05T02:44:15.672Z,4728.00
2023-05-05T02:45:15.680Z,4721.00
2023-05-05T02:46:15.750Z,4737.00
2023-05-05T02:47:15.740Z,4718.00
2023-05-05T02:48:15.744Z,4721.00
2023-05-05T02:49:15.769Z,4718.00
2023-05-05T02:50:15.770Z,4718.00
2023-05-05T02:51:15.805Z,4727.00
2023-05-05T02:52:15.815Z,4702.00
2023-05-05T02:53:15.840Z,4698.00
2023-05-05T02:54:15.864Z,4695.00
2023-05-05T02:55:15.851Z,4685.00
2023-05-05T02:56:15.934Z,4688.00
2023-05-05T02:57:16.000Z,4680.00
2023-05-05T02:58:15.972Z,4668.00
2023-05-05T02:59:16.321Z,4674.00
2023-05-05T03:00:15.971Z,4658.00
2023-05-05T03:01:16.026Z,4660.00
2023-05-05T03:02:16.052Z,4657.00
2023-05-05T03:03:16.110Z,4655.00
2023-05-05T03:04:16.071Z,4648.00
2023-05-05T03:05:16.032Z,4661.00
2023-05-05T03:06:16.029Z,4643.00
2023-05-05T03:07:16.097Z,4641.00
2023-05-05T03:08:16.106Z,4647.00
2023-05-05T03:09:16.131Z,4641.00
2023-05-05T03:10:16.162Z,4641.00
2023-05-05T03:11:16.139Z,4651.00
2023-05-05T03:12:16.229Z,4646.00
2023-05-05T03:13:16.216Z,4627.00
2023-05-05T03:14:16.224Z,4618.00
2023-05-05T03:15:16.249Z,4624.00
2023-05-05T03:16:16.271Z,4627.00
2023-05-05T03:17:16.262Z,4628.00
2023-05-05T03:18:16.410Z,4618.00
2023-05-05T03:19:16.408Z,4604.00
2023-05-05T03:20:16.327Z,4586.00
2023-05-05T03:21:16.339Z,4600.00
2023-05-05T03:22:16.370Z,4589.00
2023-05-05T03:23:16.403Z,4595.00
2023-05-05T03:24:16.409Z,4591.00
2023-05-05T03:25:16.402Z,4573.00
2023-05-05T03:26:16.367Z,4580.00
2023-05-05T03:27:16.451Z,4574.00
2023-05-05T03:28:16.435Z,4593.00
2023-05-05T03:29:16.440Z,4577.00
2023-05-05T03:30:16.463Z,4582.00
2023-05-05T03:31:16.537Z,4585.00
2023-05-05T03:32:16.526Z,4573.00
2023-05-05T03:33:16.512Z,4569.00
2023-05-05T03:34:16.570Z,4581.00
2023-05-05T03:35:16.595Z,4584.00
2023-05-05T03:36:16.599Z,4574.00
2023-05-05T03:37:16.614Z,4566.00
2023-05-05T03:38:16.636Z,4558.00
2023-05-05T03:39:16.716Z,4563.00
2023-05-05T03:40:16.717Z,4555.00
2023-05-05T03:41:16.715Z,4551.00
2023-05-05T03:42:16.730Z,4547.00
2023-05-05T03:43:16.751Z,4544.00
2023-05-05T03:44:16.773Z,4526.00
2023-05-05T03:45:16.846Z,4526.00
2023-05-05T03:46:17.208Z,4528.00
2023-05-05T03:47:16.822Z,4521.00
2023-05-05T03:48:16.883Z,4519.00
2023-05-05T03:49:16.931Z,4528.00
2023-05-05T03:50:16.921Z,4536.00
2023-05-05T03:51:16.958Z,4515.00
2023-05-05T03:52:16.999Z,4509.00
2023-05-05T03:53:17.024Z,4527.00
2023-05-05T03:54:17.021Z,4512.00
2023-05-05T03:55:17.060Z,4523.00
2023-05-05T03:56:17.121Z,4498.00
2023-05-05T03:57:17.151Z,4501.00
2023-05-05T03:58:17.150Z,4502.00
2023-05-05T03:59:17.160Z,4490.00
2023-05-05T04:00:17.171Z,4492.00
2023-05-05T04:01:17.274Z,4472.00
2023-05-05T04:02:18.837Z,4474.00
2023-05-05T04:03:17.381Z,4459.00
2023-05-05T04:04:17.285Z,4460.00
2023-05-05T04:05:17.301Z,4450.00
2023-05-05T04:06:17.305Z,4416.00
2023-05-05T04:07:17.314Z,4402.00
2023-05-05T04:08:17.353Z,4386.00
2023-05-05T04:09:17.357Z,4360.00
2023-05-05T04:10:17.426Z,4344.00
2023-05-05T04:11:17.443Z,4316.00
2023-05-05T04:12:17.454Z,4281.00
2023-05-05T04:13:17.535Z,4267.00
2023-05-05T04:14:17.544Z,4252.00
2023-05-05T04:15:17.561Z,4216.00
2023-05-05T04:16:17.630Z,4186.00
2023-05-05T04:17:17.565Z,4168.00
2023-05-05T04:18:17.611Z,4154.00
2023-05-05T04:19:17.705Z,4117.00
2023-05-05T04:20:17.697Z,4107.00
2023-05-05T04:21:17.763Z,4080.00
2023-05-05T04:22:17.777Z,4055.00
2023-05-05T04:23:17.798Z,4027.00
2023-05-05T04:24:17.839Z,4001.00
2023-05-05T04:25:17.848Z,3960.00
2023-05-05T04:26:17.859Z,3951.00
2023-05-05T04:27:17.857Z,3938.00
2023-05-05T04:28:19.600Z,3944.00
2023-05-05T04:29:17.908Z,3911.00
2023-05-05T04:30:17.900Z,3919.00
2023-05-05T04:31:17.989Z,3914.00
2023-05-05T04:32:17.900Z,3905.00
2023-05-05T04:33:17.900Z,3942.00
2023-05-05T04:34:17.843Z,3942.00
2023-05-05T04:35:17.845Z,3938.00
2023-05-05T04:36:17.872Z,3924.00
2023-05-05T04:37:17.832Z,3934.00
2023-05-05T04:38:17.860Z,3944.00
2023-05-05T04:39:17.839Z,3953.00
2023-05-05T04:40:17.845Z,3934.00
2023-05-05T04:41:17.856Z,3936.00
2023-05-05T04:42:17.795Z,3926.00
2023-05-05T04:43:17.793Z,3922.00
2023-05-05T04:44:17.763Z,3903.00
2023-05-05T04:45:17.782Z,3884.00
2023-05-05T04:46:17.812Z,3852.00
2023-05-05T04:47:17.799Z,3846.00
2023-05-05T04:48:17.744Z,3867.00
2023-05-05T04:49:17.757Z,3879.00
2023-05-05T04:50:17.753Z,3890.00
2023-05-05T04:51:17.745Z,3892.00
2023-05-05T04:52:17.729Z,3926.00
2023-05-05T04:53:17.727Z,3939.00
2023-05-05T04:54:17.737Z,3935.00
2023-05-05T04:55:17.753Z,3935.00
2023-05-05T04:56:17.751Z,3937.00
2023-05-05T04:57:17.758Z,3960.00
2023-05-05T04:58:17.717Z,3980.00
2023-05-05T04:59:17.732Z,3978.00
2023-05-05T05:00:17.690Z,3961.00
2023-05-05T05:01:17.683Z,3969.00
2023-05-05T05:02:17.841Z,3945.00
2023-05-05T05:03:18.386Z,3955.00
2023-05-05T05:04:17.703Z,3941.00
2023-05-05T05:05:17.621Z,3941.00
2023-05-05T05:06:17.634Z,3924.00
2023-05-05T05:07:17.674Z,3913.00
2023-05-05T05:08:17.662Z,3924.00
2023-05-05T05:09:17.620Z,3909.00
2023-05-05T05:10:17.596Z,3912.00
2023-05-05T05:11:17.599Z,3894.00
2023-05-05T05:12:17.602Z,3896.00
2023-05-05T05:13:17.737Z,3886.00
2023-05-05T05:14:17.600Z,3879.00
2023-05-05T05:15:17.539Z,3870.00
2023-05-05T05:16:17.645Z,3862.00
2023-05-05T05:17:17.543Z,3845.00
2023-05-05T05:18:17.708Z,3844.00
2023-05-05T05:19:17.538Z,3839.00
2023-05-05T05:20:17.565Z,3830.00
2023-05-05T05:21:17.565Z,3810.00
2023-05-05T05:22:17.570Z,3807.00
2023-05-05T05:23:17.530Z,3815.00
2023-05-05T05:24:17.542Z,3790.00
2023-05-05T05:25:17.547Z,3779.00
2023-05-05T05:26:17.528Z,3774.00
2023-05-05T05:27:17.472Z,3780.00
2023-05-05T05:28:17.475Z,3782.00
2023-05-05T05:29:17.522Z,3767.00
2023-05-05T05:30:17.460Z,3764.00
2023-05-05T05:31:17.452Z,3756.00
2023-05-05T05:32:17.531Z,3775.00
2023-05-05T05:33:17.498Z,3747.00
2023-05-05T05:34:17.676Z,3758.00
2023-05-05T05:35:17.450Z,3747.00
2023-05-05T05:36:17.467Z,3737.00
2023-05-05T05:37:17.540Z,3719.00
2023-05-05T05:38:17.418Z,3737.00
2023-05-05T05:39:17.468Z,3730.00
2023-05-05T05:40:17.474Z,3723.00
2023-05-05T05:41:17.448Z,3721.00
2023-05-05T05:42:17.504Z,3724.00
2023-05-05T05:43:17.407Z,3722.00
2023-05-05T05:44:17.600Z,3736.00
2023-05-05T05:45:17.524Z,3748.00
2023-05-05T05:46:17.619Z,3735.00
2023-05-05T05:47:17.633Z,3720.00
2023-05-05T05:48:17.696Z,3685.00
2023-05-05T05:49:17.737Z,3707.00
2023-05-05T05:50:17.712Z,3711.00
2023-05-05T05:51:17.669Z,3727.00
2023-05-05T05:52:17.842Z,3755.00
2023-05-05T05:53:17.861Z,3746.00
2023-05-05T05:54:18.172Z,3767.00
2023-05-05T05:55:17.950Z,3774.00
2023-05-05T05:56:18.005Z,3777.00
2023-05-05T05:57:18.301Z,3783.00
2023-05-05T05:58:18.084Z,3790.00
2023-05-05T05:59:18.118Z,3791.00
2023-05-05T06:00:18.222Z,3802.00
2023-05-05T06:01:18.242Z,3800.00
2023-05-05T06:02:18.304Z,3824.00
2023-05-05T06:03:18.494Z,3832.00
2023-05-05T06:04:18.373Z,3850.00
2023-05-05T06:05:18.442Z,3855.00
2023-05-05T06:06:18.446Z,3863.00
2023-05-05T06:07:18.439Z,3870.00
2023-05-05T06:08:18.442Z,3876.00
2023-05-05T06:09:18.513Z,3871.00
2023-05-05T06:10:26.543Z,3893.00
2023-05-05T06:11:19.439Z,3894.00
2023-05-05T06:12:18.464Z,3896.00
2023-05-05T06:13:18.461Z,3905.00
2023-05-05T06:14:20.208Z,3923.00
2023-05-05T06:15:18.423Z,3938.00
2023-05-05T06:16:18.408Z,3961.00
2023-05-05T06:17:18.448Z,3966.00
2023-05-05T06:18:18.477Z,3978.00
2023-05-05T06:19:18.474Z,3966.00
2023-05-05T06:20:18.380Z,3965.00
2023-05-05T06:21:18.362Z,3958.00
2023-05-05T06:22:18.375Z,3968.00
2023-05-05T06:23:18.753Z,3976.00
2023-05-05T06:24:18.326Z,3953.00
2023-05-05T06:25:18.370Z,3959.00
2023-05-05T06:26:18.395Z,3961.00
2023-05-05T06:27:18.374Z,3953.00
2023-05-05T06:28:18.712Z,3979.00
2023-05-05T06:29:19.439Z,3987.00
2023-05-05T06:30:18.381Z,3975.00
2023-05-05T06:31:18.334Z,3990.00
2023-05-05T06:32:18.403Z,3986.00
2023-05-05T06:33:18.332Z,4005.00
2023-05-05T06:34:18.297Z,4009.00
2023-05-05T06:35:18.335Z,4003.00
2023-05-05T06:36:18.689Z,3999.00
2023-05-05T06:37:19.210Z,4009.00
2023-05-05T06:38:18.540Z,4013.00
2023-05-05T06:39:18.390Z,4000.00
2023-05-05T06:40:18.446Z,3982.00
2023-05-05T06:41:18.672Z,3989.00
2023-05-05T06:42:18.562Z,3994.00
2023-05-05T06:43:18.590Z,3988.00
2023-05-05T06:44:18.627Z,3988.00
2023-05-05T06:45:18.711Z,3966.00
2023-05-05T06:46:18.905Z,3897.00
2023-05-05T06:47:18.825Z,3917.00
2023-05-05T06:48:19.051Z,3890.00
2023-05-05T06:49:18.914Z,3869.00
2023-05-05T06:50:19.030Z,3785.00
2023-05-05T06:51:19.057Z,3776.00
2023-05-05T06:52:19.182Z,3777.00
2023-05-05T06:53:19.148Z,3773.00
2023-05-05T06:54:19.223Z,3776.00
2023-05-05T06:55:19.357Z,3801.00
2023-05-05T06:56:19.685Z,3809.00
2023-05-05T06:57:19.377Z,3819.00
2023-05-05T06:58:19.457Z,3820.00
2023-05-05T06:59:19.499Z,3844.00
2023-05-05T07:00:19.536Z,3855.00
2023-05-05T07:01:19.703Z,3877.00
2023-05-05T07:02:19.766Z,3887.00
2023-05-05T07:03:19.755Z,3857.00
2023-05-05T07:04:20.248Z,3853.00
2023-05-05T07:05:19.790Z,3857.00
2023-05-05T07:06:19.865Z,3877.00
2023-05-05T07:07:19.897Z,3895.00
2023-05-05T07:08:19.898Z,3866.00
2023-05-05T07:09:20.026Z,3885.00
2023-05-05T07:10:19.979Z,3901.00
2023-05-05T07:11:20.096Z,3903.00
2023-05-05T07:12:20.073Z,3903.00
2023-05-05T07:13:20.248Z,3862.00
2023-05-05T07:14:21.534Z,3834.00
2023-05-05T07:15:28.687Z,3836.00
2023-05-05T07:16:21.198Z,3837.00
2023-05-05T07:17:20.160Z,3838.00
2023-05-05T07:18:20.267Z,3855.00
2023-05-05T07:19:20.079Z,3887.00
2023-05-05T07:20:20.116Z,3924.00
2023-05-05T07:21:20.162Z,3916.00
2023-05-05T07:22:20.068Z,3903.00
2023-05-05T07:23:20.068Z,3914.00
2023-05-05T07:24:20.077Z,3871.00
2023-05-05T07:25:20.107Z,3887.00
2023-05-05T07:26:20.090Z,3874.00
2023-05-05T07:27:20.194Z,3836.00
2023-05-05T07:28:20.245Z,3855.00
2023-05-05T07:29:20.118Z,3844.00
2023-05-05T07:30:20.248Z,3868.00
2023-05-05T07:31:20.080Z,3804.00
2023-05-05T07:32:20.110Z,3780.00
2023-05-05T07:33:20.099Z,3781.00
2023-05-05T07:34:20.048Z,3722.00
2023-05-05T07:35:20.396Z,3643.00
2023-05-05T07:36:20.096Z,3577.00
2023-05-05T07:37:20.202Z,3603.00
2023-05-05T07:38:20.518Z,3596.00
2023-05-05T07:39:22.690Z,3557.00
2023-05-05T07:40:20.227Z,3384.00
2023-05-05T07:41:20.159Z,3395.00
2023-05-05T07:42:20.252Z,3271.00
2023-05-05T07:43:20.324Z,3072.00
2023-05-05T07:44:20.249Z,3026.00
2023-05-05T07:45:20.169Z,3072.00
2023-05-05T07:46:20.230Z,3067.00
2023-05-05T07:47:20.164Z,2986.00
2023-05-05T07:48:20.349Z,3031.00
2023-05-05T07:49:20.099Z,2957.00
2023-05-05T07:50:20.059Z,2959.00
2023-05-05T07:51:20.074Z,2915.00
2023-05-05T07:52:25.223Z,2735.00
2023-05-05T07:53:21.126Z,2736.00
2023-05-05T07:54:20.005Z,2755.00
2023-05-05T07:55:20.090Z,2772.00
2023-05-05T07:56:21.819Z,2813.00
2023-05-05T07:57:19.989Z,2849.00
2023-05-05T07:58:20.005Z,2830.00
2023-05-05T07:59:20.038Z,2854.00
2023-05-05T08:00:20.220Z,2864.00
2023-05-05T08:01:19.951Z,2854.00
2023-05-05T08:02:19.996Z,2822.00
2023-05-05T08:03:20.163Z,2778.00
2023-05-05T08:04:20.003Z,2737.00
2023-05-05T08:05:19.997Z,2748.00
2023-05-05T08:06:19.961Z,2755.00
2023-05-05T08:07:19.919Z,2725.00
2023-05-05T08:08:20.004Z,2592.00
2023-05-05T08:09:19.917Z,2670.00
2023-05-05T08:10:19.918Z,2622.00
2023-05-05T08:11:20.003Z,2420.00
2023-05-05T08:12:20.715Z,2546.00
2023-05-05T08:13:20.049Z,2406.00
2023-05-05T08:14:20.011Z,2283.00
2023-05-05T08:15:20.197Z,2030.00
2023-05-05T08:16:20.119Z,1875.00
2023-05-05T08:17:20.149Z,1959.00
2023-05-05T08:18:20.103Z,1751.00
2023-05-05T08:19:28.636Z,1754.00
2023-05-05T08:20:21.252Z,1641.00
2023-05-05T08:21:20.124Z,1765.00
2023-05-05T08:22:20.211Z,1818.00
2023-05-05T08:23:20.160Z,1918.00
2023-05-05T08:24:20.180Z,2095.00
2023-05-05T08:25:20.145Z,2230.00
2023-05-05T08:26:20.152Z,2346.00
2023-05-05T08:27:20.160Z,2404.00
2023-05-05T08:28:20.711Z,2468.00
2023-05-05T08:29:20.328Z,2345.00
2023-05-05T08:30:20.061Z,2301.00
2023-05-05T08:31:20.275Z,2294.00
2023-05-05T08:32:20.180Z,2172.00
2023-05-05T08:33:20.208Z,1984.00
2023-05-05T08:34:20.395Z,2004.00
2023-05-05T08:35:20.434Z,1905.00
2023-05-05T08:36:20.324Z,1824.00
2023-05-05T08:37:20.825Z,1711.00
2023-05-05T08:38:20.401Z,1682.00
2023-05-05T08:39:20.530Z,1714.00
2023-05-05T08:40:20.542Z,1660.00
2023-05-05T08:41:20.587Z,1795.00
2023-05-05T08:42:33.248Z,1871.00
2023-05-05T08:43:21.751Z,1815.00
2023-05-05T08:44:20.634Z,1870.00
2023-05-05T08:45:20.635Z,1881.00
2023-05-05T08:46:20.755Z,1829.00
2023-05-05T08:47:20.678Z,1718.00
2023-05-05T08:48:20.605Z,1537.00
2023-05-05T08:49:20.701Z,1549.00
2023-05-05T08:50:20.597Z,1570.00
2023-05-05T08:51:20.625Z,1601.00
2023-05-05T08:52:20.664Z,1494.00
2023-05-05T08:53:20.654Z,1379.00
2023-05-05T08:54:20.736Z,1141.00
2023-05-05T08:55:20.741Z,1179.00
2023-05-05T08:56:20.761Z,1376.00
2023-05-05T08:57:20.837Z,1405.00
2023-05-05T08:58:20.853Z,1446.00
2023-05-05T08:59:20.936Z,1372.00
2023-05-05T09:00:20.951Z,1376.00
2023-05-05T09:01:21.053Z,1270.00
2023-05-05T09:02:21.073Z,1051.00
2023-05-05T09:03:21.190Z,785.00
2023-05-05T09:04:21.235Z,989.00
2023-05-05T09:05:21.178Z,964.00
2023-05-05T09:06:21.208Z,774.00
2023-05-05T09:07:21.285Z,700.00
2023-05-05T09:08:21.423Z,767.00
2023-05-05T09:09:21.419Z,885.00
2023-05-05T09:10:21.550Z,901.00
2023-05-05T09:11:21.505Z,1058.00
2023-05-05T09:12:21.992Z,1031.00
2023-05-05T09:13:21.700Z,1002.00
2023-05-05T09:14:21.676Z,935.00
2023-05-05T09:15:21.716Z,797.00
2023-05-05T09:16:21.775Z,693.00
2023-05-05T09:17:21.875Z,799.00
2023-05-05T09:18:22.337Z,833.00
2023-05-05T09:19:21.890Z,743.00
2023-05-05T09:20:22.226Z,638.00
2023-05-05T09:21:21.902Z,646.00
2023-05-05T09:22:21.859Z,657.00
2023-05-05T09:23:21.896Z,635.00
2023-05-05T09:24:21.918Z,579.00
2023-05-05T09:25:21.928Z,591.00
2023-05-05T09:26:21.897Z,571.00
2023-05-05T09:27:22.248Z,657.00
2023-05-05T09:28:22.264Z,630.00
2023-05-05T09:29:21.982Z,661.00
2023-05-05T09:30:21.995Z,635.00
2023-05-05T09:31:22.066Z,731.00
2023-05-05T09:32:22.136Z,794.00
2023-05-05T09:33:22.087Z,849.00
2023-05-05T09:34:22.033Z,1012.00
2023-05-05T09:35:22.135Z,870.00
2023-05-05T09:36:22.243Z,743.00
2023-05-05T09:37:22.775Z,784.00
2023-05-05T09:38:22.214Z,754.00
2023-05-05T09:39:22.108Z,638.00
2023-05-05T09:40:22.292Z,610.00
2023-05-05T09:41:22.068Z,602.00
2023-05-05T09:42:22.092Z,613.00
2023-05-05T09:43:22.129Z,605.00
2023-05-05T09:44:22.089Z,547.00
2023-05-05T09:45:22.164Z,484.00
2023-05-05T09:46:22.293Z,481.00
2023-05-05T09:47:29.603Z,483.00
2023-05-05T09:48:23.272Z,456.00
2023-05-05T09:49:22.253Z,458.00
2023-05-05T09:50:22.238Z,447.00
2023-05-05T09:51:22.275Z,466.00
2023-05-05T09:52:22.233Z,523.00
2023-05-05T09:53:22.259Z,532.00
2023-05-05T09:54:22.277Z,547.00
2023-05-05T09:55:22.179Z,507.00
2023-05-05T09:56:22.176Z,541.00
2023-05-05T09:57:22.183Z,552.00
2023-05-05T09:58:22.283Z,511.00
2023-05-05T09:59:22.166Z,540.00
2023-05-05T10:00:22.238Z,547.00
2023-05-05T10:01:22.235Z,573.00
2023-05-05T10:02:22.211Z,645.00
2023-05-05T10:03:22.243Z,585.00
2023-05-05T10:04:22.324Z,604.00
2023-05-05T10:05:22.368Z,758.00
2023-05-05T10:06:22.348Z,1000.00
2023-05-05T10:07:22.431Z,1116.00
2023-05-05T10:08:22.416Z,1215.00
2023-05-05T10:09:22.477Z,1220.00
2023-05-05T10:10:22.543Z,1152.00
2023-05-05T10:11:22.581Z,922.00
2023-05-05T10:12:22.654Z,1319.00
2023-05-05T10:13:22.727Z,1547.00
2023-05-05T10:14:22.789Z,1305.00
2023-05-05T10:15:22.888Z,1369.00
2023-05-05T10:16:23.341Z,1819.00
2023-05-05T10:17:22.950Z,2074.00
2023-05-05T10:18:23.241Z,2160.00
2023-05-05T10:19:24.303Z,2135.00
2023-05-05T10:20:23.150Z,2116.00
2023-05-05T10:21:23.226Z,2014.00
2023-05-05T10:22:23.269Z,1844.00
2023-05-05T10:23:23.354Z,1714.00
2023-05-05T10:24:23.389Z,1648.00
2023-05-05T10:25:23.418Z,1691.00
2023-05-05T10:26:23.535Z,1653.00
2023-05-05T10:27:23.557Z,1574.00
2023-05-05T10:28:23.612Z,1210.00
2023-05-05T10:29:24.517Z,1125.00
2023-05-05T10:30:23.702Z,1110.00
2023-05-05T10:31:26.405Z,979.00
2023-05-05T10:32:51.095Z,991.00
2023-05-05T10:33:31.100Z,943.00
2023-05-05T10:34:24.954Z,992.00
2023-05-05T10:35:23.885Z,1000.00
2023-05-05T10:36:23.987Z,1052.00
2023-05-05T10:37:23.870Z,1166.00
2023-05-05T10:38:24.796Z,1386.00
2023-05-05T10:39:23.742Z,1633.00
2023-05-05T10:40:23.708Z,1611.00
2023-05-05T10:41:23.739Z,1644.00
2023-05-05T10:42:23.725Z,1793.00
2023-05-05T10:43:23.711Z,1789.00
2023-05-05T10:44:23.688Z,1813.00
2023-05-05T10:45:23.688Z,1867.00
2023-05-05T10:46:23.688Z,1919.00
2023-05-05T10:47:23.710Z,1987.00
2023-05-05T10:48:23.682Z,2016.00
2023-05-05T10:49:23.661Z,2104.00
2023-05-05T10:50:23.617Z,2163.00
2023-05-05T10:51:35.189Z,2195.00
2023-05-05T10:52:24.720Z,2196.00
2023-05-05T10:53:23.677Z,2204.00
2023-05-05T10:54:23.794Z,2209.00
2023-05-05T10:55:23.763Z,2235.00
2023-05-05T10:56:23.559Z,2310.00
2023-05-05T10:57:23.595Z,2344.00
2023-05-05T10:58:23.604Z,2376.00
2023-05-05T10:59:23.551Z,2402.00
2023-05-05T11:00:23.553Z,2400.00
2023-05-05T11:01:23.622Z,2340.00
2023-05-05T11:02:23.889Z,2314.00
2023-05-05T11:03:23.587Z,2351.00
2023-05-05T11:04:23.513Z,2347.00
2023-05-05T11:05:23.543Z,2298.00
2023-05-05T11:06:23.548Z,2287.00
2023-05-05T11:07:23.533Z,2290.00
2023-05-05T11:08:23.555Z,2324.00
2023-05-05T11:09:23.582Z,2058.00
2023-05-05T11:10:23.585Z,1596.00
2023-05-05T11:11:23.685Z,1337.00
2023-05-05T11:12:23.622Z,1149.00
2023-05-05T11:13:23.759Z,915.00
2023-05-05T11:14:23.838Z,626.00
2023-05-05T11:15:23.792Z,559.00
2023-05-05T11:16:23.791Z,537.00
2023-05-05T11:17:23.725Z,625.00
2023-05-05T11:18:23.832Z,769.00
2023-05-05T11:19:24.345Z,1148.00
2023-05-05T11:20:23.834Z,1386.00
2023-05-05T11:21:24.293Z,1614.00
2023-05-05T11:22:23.976Z,1806.00
2023-05-05T11:23:24.015Z,1956.00
2023-05-05T11:24:24.129Z,2008.00
2023-05-05T11:25:24.084Z,2075.00
2023-05-05T11:26:24.061Z,2140.00
2023-05-05T11:27:24.151Z,2137.00
2023-05-05T11:28:24.107Z,2094.00
2023-05-05T11:29:24.157Z,2117.00
2023-05-05T11:30:24.273Z,2090.00
2023-05-05T11:31:24.375Z,2069.00
2023-05-05T11:32:24.361Z,2072.00
2023-05-05T11:33:24.283Z,2073.00
2023-05-05T11:34:24.789Z,2050.00
2023-05-05T11:35:24.371Z,2080.00
2023-05-05T11:36:24.408Z,2072.00
2023-05-05T11:37:24.483Z,2026.00
2023-05-05T11:38:24.466Z,1984.00
2023-05-05T11:39:24.528Z,1984.00
2023-05-05T11:40:24.602Z,1945.00
2023-05-05T11:41:24.602Z,1927.00
2023-05-05T11:42:24.708Z,1917.00
2023-05-05T11:43:24.752Z,1878.00
2023-05-05T11:44:24.755Z,1863.00
2023-05-05T11:45:24.791Z,1855.00
2023-05-05T11:46:24.881Z,1876.00
2023-05-05T11:47:24.883Z,1880.00
2023-05-05T11:48:24.927Z,1861.00
2023-05-05T11:49:24.980Z,1812.00
2023-05-05T11:50:25.011Z,1824.00
2023-05-05T11:51:25.047Z,1806.00
2023-05-05T11:52:25.117Z,1750.00
2023-05-05T11:53:25.194Z,1704.00
2023-05-05T11:54:25.242Z,1732.00
2023-05-05T11:55:25.287Z,1695.00
2023-05-05T11:56:25.318Z,1673.00
2023-05-05T11:57:25.389Z,1638.00
2023-05-05T11:58:25.417Z,1631.00
2023-05-05T11:59:25.468Z,1643.00
2023-05-05T12:00:25.518Z,1818.00
2023-05-05T12:01:25.612Z,2105.00
2023-05-05T12:02:25.708Z,2262.00
2023-05-05T12:03:25.825Z,2436.00
2023-05-05T12:04:25.795Z,2543.00
2023-05-05T12:05:25.801Z,2641.00
2023-05-05T12:06:25.844Z,2753.00
2023-05-05T12:07:25.935Z,2812.00